Time;durP1;ratioP1;P1;durP2;ratioP2;P2;SDS_P1;SDS_P2;PMS_P1;PMS_P2;Temp;Humidity;BMP_temperature;BMP_pressure;BME280_temperature;BME280_humidity;BME280_pressure;Samples;Min_cycle;Max_cycle;Signal;HPM_P1;HPM_P2
2023/11/27 00:01:20;;;;;;;12.25;8.10;;;;;;;;;;5063463;28;20048;-53
2023/11/27 00:03:48;;;;;;;13.45;9.50;;;;;;;;;;5063651;28;20025;-53
2023/11/27 00:06:15;;;;;;;15.52;9.95;;;;;;;;;;5066017;28;20333;-53
2023/11/27 00:08:43;;;;;;;15.35;11.23;;;;;;;;;;5067689;28;20047;-54
2023/11/27 00:11:10;;;;;;;16.58;12.52;;;;;;;;;;5067640;28;20163;-49
2023/11/27 00:13:37;;;;;;;16.33;8.68;;;;;;;;;;5051096;28;20096;-43
2023/11/27 00:16:04;;;;;;;9.82;6.18;;;;;;;;;;5056765;28;20029;-43
2023/11/27 00:18:31;;;;;;;10.00;5.97;;;;;;;;;;5056579;28;20049;-46
2023/11/27 00:20:57;;;;;;;9.43;6.53;;;;;;;;;;5072052;28;20028;-43
2023/11/27 00:23:25;;;;;;;10.35;5.85;;;;;;;;;;5079419;28;20020;-42
2023/11/27 00:25:52;;;;;;;8.60;5.68;;;;;;;;;;5088226;28;20065;-42
2023/11/27 00:28:19;;;;;;;10.40;6.03;;;;;;;;;;5068304;28;20032;-48
2023/11/27 00:30:47;;;;;;;7.25;4.72;;;;;;;;;;5067713;28;20032;-44
2023/11/27 00:33:15;;;;;;;7.45;5.20;;;;;;;;;;5067075;28;20084;-48
2023/11/27 00:35:42;;;;;;;7.15;4.47;;;;;;;;;;5067441;28;20340;-43
2023/11/27 00:38:10;;;;;;;6.63;5.07;;;;;;;;;;5067727;28;20326;-45
2023/11/27 00:40:37;;;;;;;9.27;4.65;;;;;;;;;;5050117;28;20025;-43
2023/11/27 00:43:04;;;;;;;7.85;4.82;;;;;;;;;;5059325;28;20036;-54
2023/11/27 00:45:31;;;;;;;8.23;5.20;;;;;;;;;;5047029;28;20053;-43
2023/11/27 00:47:59;;;;;;;8.80;5.55;;;;;;;;;;5047255;28;20265;-44
2023/11/27 00:50:26;;;;;;;10.77;6.18;;;;;;;;;;5046982;28;20132;-50
2023/11/27 00:52:52;;;;;;;9.57;8.07;;;;;;;;;;5057599;28;20047;-43
2023/11/27 00:55:20;;;;;;;13.30;9.57;;;;;;;;;;5078224;28;20062;-49
2023/11/27 00:57:47;;;;;;;15.25;10.23;;;;;;;;;;5075774;28;20048;-44
2023/11/27 01:00:14;;;;;;;12.90;8.93;;;;;;;;;;5063033;28;20332;-43
2023/11/27 01:02:41;;;;;;;16.13;9.05;;;;;;;;;;5060878;28;20043;-47
2023/11/27 01:05:08;;;;;;;8.80;7.57;;;;;;;;;;5073058;28;20064;-43
2023/11/27 01:07:36;;;;;;;9.73;7.47;;;;;;;;;;5072177;28;20024;-43
2023/11/27 01:10:02;;;;;;;15.05;7.32;;;;;;;;;;5066425;28;20021;-43
2023/11/27 01:12:29;;;;;;;8.80;6.95;;;;;;;;;;5086724;28;20032;-42
2023/11/27 01:14:56;;;;;;;10.60;7.03;;;;;;;;;;5065719;28;20293;-46
2023/11/27 01:17:24;;;;;;;10.95;7.20;;;;;;;;;;5052366;28;20072;-44
2023/11/27 01:19:50;;;;;;;8.93;7.88;;;;;;;;;;5060259;28;20032;-43
2023/11/27 01:22:17;;;;;;;10.70;9.50;;;;;;;;;;5067052;28;20055;-49
2023/11/27 01:24:44;;;;;;;10.05;9.05;;;;;;;;;;5074266;28;20048;-51
2023/11/27 01:27:10;;;;;;;12.02;8.63;;;;;;;;;;5084569;28;20063;-46
2023/11/27 01:29:39;;;;;;;12.27;8.02;;;;;;;;;;5077702;28;20021;-48
2023/11/27 01:32:06;;;;;;;10.55;7.80;;;;;;;;;;5084239;28;20027;-53
2023/11/27 01:34:32;;;;;;;9.38;6.88;;;;;;;;;;5086042;28;20032;-50
2023/11/27 01:36:59;;;;;;;9.73;7.05;;;;;;;;;;5086695;28;20020;-46
2023/11/27 01:39:26;;;;;;;7.68;6.88;;;;;;;;;;5086461;28;20033;-46
2023/11/27 01:41:52;;;;;;;8.18;6.50;;;;;;;;;;5085344;28;20040;-45
2023/11/27 01:44:19;;;;;;;7.53;5.97;;;;;;;;;;5086962;28;20024;-48
2023/11/27 01:46:47;;;;;;;8.00;5.60;;;;;;;;;;5043711;28;20044;-42
2023/11/27 01:49:16;;;;;;;9.20;5.30;;;;;;;;;;5063612;28;20075;-43
2023/11/27 01:51:43;;;;;;;8.05;4.75;;;;;;;;;;5065670;28;20017;-44
2023/11/27 01:54:11;;;;;;;6.78;4.97;;;;;;;;;;5065613;28;20045;-46
2023/11/27 01:56:38;;;;;;;8.95;4.93;;;;;;;;;;5066086;28;20029;-46
2023/11/27 01:59:05;;;;;;;6.93;4.70;;;;;;;;;;5065641;28;20335;-45
2023/11/27 02:01:32;;;;;;;7.07;4.43;;;;;;;;;;5064468;28;20232;-45
2023/11/27 02:04:00;;;;;;;7.20;4.13;;;;;;;;;;5065395;28;20025;-42
2023/11/27 02:06:30;;;;;;;7.15;4.47;;;;;;;;;;5067295;28;20017;-46
2023/11/27 02:08:58;;;;;;;5.95;4.25;;;;;;;;;;5065699;28;20070;-44
2023/11/27 02:11:28;;;;;;;8.55;4.40;;;;;;;;;;5064440;28;20029;-43
2023/11/27 02:13:58;;;;;;;7.70;4.15;;;;;;;;;;5065722;28;20008;-46
2023/11/27 02:16:25;;;;;;;7.63;3.80;;;;;;;;;;5065499;28;20025;-42
2023/11/27 02:18:51;;;;;;;5.03;3.55;;;;;;;;;;5065265;28;20033;-42
2023/11/27 02:21:21;;;;;;;5.50;3.38;;;;;;;;;;5065503;28;20071;-41
2023/11/27 02:23:48;;;;;;;5.43;3.20;;;;;;;;;;5065178;28;20020;-46
2023/11/27 02:26:15;;;;;;;5.85;3.22;;;;;;;;;;5065251;28;20362;-48
2023/11/27 02:28:41;;;;;;;6.65;3.30;;;;;;;;;;5062713;28;20119;-48
2023/11/27 02:31:08;;;;;;;6.68;3.38;;;;;;;;;;5055505;28;20096;-47
2023/11/27 02:33:35;;;;;;;6.18;3.90;;;;;;;;;;5045234;28;20037;-49
2023/11/27 02:36:02;;;;;;;5.32;3.35;;;;;;;;;;5045155;28;20017;-49
2023/11/27 02:38:28;;;;;;;5.80;3.20;;;;;;;;;;5045040;28;20236;-42
2023/11/27 02:40:56;;;;;;;6.10;3.30;;;;;;;;;;5045057;28;20044;-46
2023/11/27 02:43:23;;;;;;;7.20;3.20;;;;;;;;;;5044888;28;20052;-47
2023/11/27 02:45:51;;;;;;;5.97;2.83;;;;;;;;;;5044924;28;20209;-42
2023/11/27 02:48:17;;;;;;;6.85;2.67;;;;;;;;;;5044452;28;20041;-47
2023/11/27 02:50:44;;;;;;;4.07;2.45;;;;;;;;;;5044787;28;20025;-49
2023/11/27 02:53:11;;;;;;;5.95;2.80;;;;;;;;;;5069102;28;20336;-47
2023/11/27 02:55:37;;;;;;;5.95;2.50;;;;;;;;;;5078301;28;20333;-45
2023/11/27 02:58:04;;;;;;;6.50;2.55;;;;;;;;;;5084377;28;20054;-42
2023/11/27 03:00:33;;;;;;;7.72;2.67;;;;;;;;;;5084436;28;20070;-43
2023/11/27 03:03:00;;;;;;;5.25;2.60;;;;;;;;;;5084179;28;20320;-44
2023/11/27 03:05:26;;;;;;;6.97;2.35;;;;;;;;;;5084600;28;20074;-43
2023/11/27 03:07:53;;;;;;;5.38;2.33;;;;;;;;;;5084467;28;20024;-42
2023/11/27 03:10:20;;;;;;;5.38;2.65;;;;;;;;;;5078019;28;20388;-47
2023/11/27 03:12:46;;;;;;;6.10;2.42;;;;;;;;;;5053007;28;20079;-43
2023/11/27 03:15:13;;;;;;;4.88;2.67;;;;;;;;;;5044380;28;20317;-48
2023/11/27 03:17:40;;;;;;;4.28;2.30;;;;;;;;;;5043889;28;20030;-43
2023/11/27 03:20:08;;;;;;;6.90;2.47;;;;;;;;;;5044258;28;20021;-47
2023/11/27 03:22:35;;;;;;;4.53;2.17;;;;;;;;;;5043974;28;20313;-45
2023/11/27 03:25:02;;;;;;;4.63;2.38;;;;;;;;;;5043657;28;20029;-45
2023/11/27 03:27:28;;;;;;;3.53;2.30;;;;;;;;;;5044175;28;20025;-47
2023/11/27 03:29:55;;;;;;;7.72;2.33;;;;;;;;;;5043924;28;20053;-45
2023/11/27 03:32:22;;;;;;;5.65;2.30;;;;;;;;;;5044370;28;20383;-48
2023/11/27 03:34:48;;;;;;;7.32;2.50;;;;;;;;;;5044094;28;20064;-52
2023/11/27 03:37:15;;;;;;;4.63;2.38;;;;;;;;;;5044477;28;20209;-42
2023/11/27 03:39:41;;;;;;;7.80;2.47;;;;;;;;;;5043819;28;20033;-45
2023/11/27 03:42:08;;;;;;;9.73;2.95;;;;;;;;;;5044207;28;20026;-47
2023/11/27 03:44:36;;;;;;;7.00;2.53;;;;;;;;;;5043832;28;20040;-43
2023/11/27 03:47:03;;;;;;;7.18;2.35;;;;;;;;;;5044185;28;20033;-47
2023/11/27 03:49:30;;;;;;;6.38;2.35;;;;;;;;;;5043791;28;20021;-47
2023/11/27 03:51:56;;;;;;;7.32;2.45;;;;;;;;;;5044168;28;20075;-44
2023/11/27 03:54:23;;;;;;;3.85;2.50;;;;;;;;;;5043738;28;20379;-42
2023/11/27 03:56:50;;;;;;;5.85;2.45;;;;;;;;;;5043657;28;20026;-44
2023/11/27 03:59:18;;;;;;;5.55;2.55;;;;;;;;;;5043768;28;20025;-45
2023/11/27 04:01:47;;;;;;;3.45;2.20;;;;;;;;;;5043911;28;20230;-46
2023/11/27 04:04:14;;;;;;;4.55;2.42;;;;;;;;;;5043634;28;20029;-46
2023/11/27 04:06:41;;;;;;;6.90;2.00;;;;;;;;;;5044075;28;20100;-42
2023/11/27 04:09:13;;;;;;;3.60;2.35;;;;;;;;;;5043409;28;20017;-44
2023/11/27 04:11:40;;;;;;;3.88;2.05;;;;;;;;;;5043902;28;20227;-41
2023/11/27 04:14:07;;;;;;;7.13;2.40;;;;;;;;;;5043441;28;20049;-49
2023/11/27 04:16:33;;;;;;;5.97;2.47;;;;;;;;;;5043694;28;20025;-45
2023/11/27 04:19:00;;;;;;;4.60;2.28;;;;;;;;;;5043610;28;20353;-42
2023/11/27 04:21:27;;;;;;;5.95;2.30;;;;;;;;;;5043873;28;20032;-44
2023/11/27 04:23:53;;;;;;;6.80;2.60;;;;;;;;;;5043668;28;20193;-44
2023/11/27 04:26:21;;;;;;;4.63;2.53;;;;;;;;;;5043623;28;20025;-45
2023/11/27 04:28:49;;;;;;;8.52;2.38;;;;;;;;;;5043252;28;20025;-50
2023/11/27 04:31:16;;;;;;;4.35;2.00;;;;;;;;;;5043460;28;20231;-47
2023/11/27 04:33:43;;;;;;;5.93;2.35;;;;;;;;;;5043565;28;20313;-47
2023/11/27 04:36:10;;;;;;;7.35;2.45;;;;;;;;;;5043699;28;20038;-44
2023/11/27 04:38:36;;;;;;;7.15;2.35;;;;;;;;;;5043269;28;20124;-48
2023/11/27 04:41:03;;;;;;;4.13;2.47;;;;;;;;;;5043294;28;20340;-50
2023/11/27 04:43:30;;;;;;;7.10;3.10;;;;;;;;;;5044834;28;20040;-47
2023/11/27 04:45:57;;;;;;;7.93;3.33;;;;;;;;;;5043356;28;20136;-49
2023/11/27 04:48:24;;;;;;;5.28;3.17;;;;;;;;;;5035091;28;20067;-45
2023/11/27 04:50:51;;;;;;;5.32;3.05;;;;;;;;;;5043367;28;20131;-44
2023/11/27 04:53:17;;;;;;;8.07;3.35;;;;;;;;;;5045126;28;20029;-44
2023/11/27 04:55:44;;;;;;;6.35;3.60;;;;;;;;;;5047062;28;20036;-47
2023/11/27 04:58:11;;;;;;;4.55;3.03;;;;;;;;;;5046902;28;20052;-43
2023/11/27 05:00:37;;;;;;;5.70;3.25;;;;;;;;;;5046737;28;20310;-45
2023/11/27 05:03:04;;;;;;;6.90;2.90;;;;;;;;;;5046763;28;20045;-44
2023/11/27 05:05:31;;;;;;;8.98;2.67;;;;;;;;;;5046689;28;20033;-43
2023/11/27 05:07:57;;;;;;;5.75;2.78;;;;;;;;;;5046768;28;20393;-51
2023/11/27 05:10:24;;;;;;;6.82;2.65;;;;;;;;;;5046441;28;20080;-49
2023/11/27 05:12:51;;;;;;;3.67;2.58;;;;;;;;;;5046706;28;20097;-44
2023/11/27 05:15:17;;;;;;;3.80;2.13;;;;;;;;;;5046592;28;20264;-45
2023/11/27 05:17:46;;;;;;;7.35;2.67;;;;;;;;;;5046442;28;20025;-41
2023/11/27 05:20:13;;;;;;;6.18;2.50;;;;;;;;;;5046347;28;20025;-44
2023/11/27 05:22:40;;;;;;;6.97;2.50;;;;;;;;;;5046380;28;20048;-48
2023/11/27 05:25:07;;;;;;;4.90;2.60;;;;;;;;;;5046206;28;20072;-42
2023/11/27 05:27:33;;;;;;;5.43;2.90;;;;;;;;;;5046598;28;20040;-43
2023/11/27 05:30:00;;;;;;;6.20;2.38;;;;;;;;;;5046068;28;20021;-46
2023/11/27 05:32:27;;;;;;;5.47;2.38;;;;;;;;;;5046072;28;20063;-48
2023/11/27 05:34:54;;;;;;;7.80;2.80;;;;;;;;;;5046175;28;20028;-43
2023/11/27 05:37:20;;;;;;;5.78;2.60;;;;;;;;;;5046575;28;20028;-44
2023/11/27 05:39:47;;;;;;;3.65;2.08;;;;;;;;;;5045914;28;20029;-43
2023/11/27 05:42:20;;;;;;;4.47;2.10;;;;;;;;;;5046482;28;20034;-43
2023/11/27 05:44:47;;;;;;;5.22;2.40;;;;;;;;;;5046010;28;20361;-55
2023/11/27 05:47:14;;;;;;;5.82;2.20;;;;;;;;;;5046286;28;20033;-46
2023/11/27 05:49:41;;;;;;;4.35;2.53;;;;;;;;;;5045910;28;20416;-48
2023/11/27 05:52:08;;;;;;;5.30;2.55;;;;;;;;;;5046416;28;20041;-49
2023/11/27 05:54:36;;;;;;;8.80;2.10;;;;;;;;;;5045745;28;20021;-42
2023/11/27 05:57:03;;;;;;;5.45;2.15;;;;;;;;;;5046200;28;20013;-41
2023/11/27 05:59:29;;;;;;;7.65;2.20;;;;;;;;;;5045561;28;20328;-42
2023/11/27 06:01:56;;;;;;;6.65;2.13;;;;;;;;;;5045956;28;20075;-42
2023/11/27 06:04:24;;;;;;;3.83;2.75;;;;;;;;;;5045346;28;20049;-48
2023/11/27 06:06:51;;;;;;;5.03;2.50;;;;;;;;;;5046031;28;20221;-43
2023/11/27 06:09:18;;;;;;;5.80;2.70;;;;;;;;;;5045410;28;20033;-43
2023/11/27 06:11:45;;;;;;;4.95;2.58;;;;;;;;;;5045832;28;20301;-46
2023/11/27 06:14:11;;;;;;;10.20;2.83;;;;;;;;;;5045377;28;20032;-47
2023/11/27 06:16:38;;;;;;;5.60;2.72;;;;;;;;;;5045599;28;20324;-43
2023/11/27 06:19:07;;;;;;;3.95;2.80;;;;;;;;;;5045593;28;20029;-42
2023/11/27 06:21:33;;;;;;;4.25;2.80;;;;;;;;;;5045672;28;20053;-44
2023/11/27 06:24:00;;;;;;;4.78;2.97;;;;;;;;;;5045158;28;20088;-43
2023/11/27 06:26:27;;;;;;;6.82;2.97;;;;;;;;;;5045247;28;20028;-42
2023/11/27 06:28:53;;;;;;;8.60;2.90;;;;;;;;;;5045022;28;20017;-43
2023/11/27 06:31:20;;;;;;;5.68;2.30;;;;;;;;;;5045225;28;20100;-46
2023/11/27 06:33:47;;;;;;;6.93;2.72;;;;;;;;;;5045196;28;20017;-49
2023/11/27 06:36:13;;;;;;;4.13;2.30;;;;;;;;;;5045249;28;20078;-44
2023/11/27 06:38:40;;;;;;;6.07;2.30;;;;;;;;;;5044869;28;20036;-50
2023/11/27 06:41:07;;;;;;;4.95;2.40;;;;;;;;;;5045141;28;20021;-43
2023/11/27 06:43:34;;;;;;;7.00;2.20;;;;;;;;;;5044915;28;20252;-43
2023/11/27 06:46:01;;;;;;;9.05;2.67;;;;;;;;;;5044863;28;20044;-48
2023/11/27 06:48:28;;;;;;;5.93;2.28;;;;;;;;;;5044956;28;20021;-43
2023/11/27 06:50:55;;;;;;;7.72;2.33;;;;;;;;;;5044671;28;20075;-42
2023/11/27 06:53:24;;;;;;;4.63;2.40;;;;;;;;;;5044773;28;20321;-42
2023/11/27 06:55:51;;;;;;;4.57;1.80;;;;;;;;;;5044978;28;20197;-44
2023/11/27 06:58:17;;;;;;;5.00;2.10;;;;;;;;;;5044689;28;20029;-43
2023/11/27 07:00:44;;;;;;;3.30;2.10;;;;;;;;;;5044454;28;20094;-44
2023/11/27 07:03:10;;;;;;;4.90;1.95;;;;;;;;;;5044524;28;20092;-43
2023/11/27 07:05:38;;;;;;;5.78;2.28;;;;;;;;;;5044562;28;20096;-45
2023/11/27 07:08:04;;;;;;;5.30;2.00;;;;;;;;;;5044591;28;20261;-50
2023/11/27 07:10:32;;;;;;;5.78;2.45;;;;;;;;;;5044437;28;20026;-49
2023/11/27 07:12:59;;;;;;;5.25;1.92;;;;;;;;;;5044364;28;20084;-47
2023/11/27 07:15:28;;;;;;;3.42;2.13;;;;;;;;;;5043843;28;20030;-45
2023/11/27 07:17:55;;;;;;;6.05;2.28;;;;;;;;;;5044259;28;20021;-45
2023/11/27 07:20:22;;;;;;;6.13;2.00;;;;;;;;;;5044190;28;20057;-45
2023/11/27 07:22:49;;;;;;;6.88;2.25;;;;;;;;;;5044504;28;20089;-44
2023/11/27 07:25:15;;;;;;;4.55;2.00;;;;;;;;;;5044123;28;20302;-46
2023/11/27 07:27:49;;;;;;;6.60;1.98;;;;;;;;;;5044203;28;20037;-48
2023/11/27 07:30:18;;;;;;;3.17;1.88;;;;;;;;;;5046267;28;20056;-43
2023/11/27 07:32:46;;;;;;;4.60;2.00;;;;;;;;;;5052633;28;20087;-43
2023/11/27 07:35:12;;;;;;;4.50;2.17;;;;;;;;;;5043811;28;20272;-42
2023/11/27 07:37:39;;;;;;;5.05;1.95;;;;;;;;;;5043628;28;20309;-43
2023/11/27 07:40:14;;;;;;;10.88;2.20;;;;;;;;;;5043949;28;20096;-45
2023/11/27 07:42:42;;;;;;;5.28;2.20;;;;;;;;;;5043694;28;20030;-44
2023/11/27 07:45:09;;;;;;;3.90;1.90;;;;;;;;;;5044009;28;20033;-42
2023/11/27 07:47:36;;;;;;;3.88;1.85;;;;;;;;;;5043634;28;20332;-43
2023/11/27 07:50:06;;;;;;;4.22;2.20;;;;;;;;;;5043688;28;20045;-42
2023/11/27 07:52:33;;;;;;;5.05;2.25;;;;;;;;;;5043673;28;20030;-42
2023/11/27 07:54:59;;;;;;;5.50;2.30;;;;;;;;;;5050589;28;20025;-47
2023/11/27 07:57:26;;;;;;;9.88;2.40;;;;;;;;;;5063570;28;20269;-44
2023/11/27 07:59:53;;;;;;;4.45;1.90;;;;;;;;;;5063483;28;20068;-45
2023/11/27 08:02:19;;;;;;;13.90;2.28;;;;;;;;;;5064035;28;20037;-44
2023/11/27 08:04:46;;;;;;;3.83;1.90;;;;;;;;;;5063552;28;20377;-45
2023/11/27 08:07:13;;;;;;;2.83;2.00;;;;;;;;;;5063944;28;20082;-42
2023/11/27 08:09:40;;;;;;;2.75;1.75;;;;;;;;;;5063630;28;20096;-42
2023/11/27 08:12:12;;;;;;;5.22;2.20;;;;;;;;;;5063867;28;20021;-44
2023/11/27 08:14:40;;;;;;;4.68;2.20;;;;;;;;;;5063482;28;20100;-48
2023/11/27 08:17:06;;;;;;;4.60;1.95;;;;;;;;;;5063880;28;20060;-46
2023/11/27 08:19:34;;;;;;;7.90;2.35;;;;;;;;;;5063363;28;20324;-51
2023/11/27 08:22:03;;;;;;;6.18;2.47;;;;;;;;;;5063926;28;20092;-52
2023/11/27 08:24:29;;;;;;;4.57;2.47;;;;;;;;;;5063387;28;20251;-52
2023/11/27 08:26:57;;;;;;;5.15;2.20;;;;;;;;;;5065270;28;20057;-53
2023/11/27 08:29:25;;;;;;;4.40;2.38;;;;;;;;;;5067243;28;20024;-45
2023/11/27 08:31:58;;;;;;;4.43;2.47;;;;;;;;;;5067814;28;20033;-43
2023/11/27 08:34:25;;;;;;;3.63;2.40;;;;;;;;;;5067027;28;20021;-42
2023/11/27 08:36:52;;;;;;;7.25;2.47;;;;;;;;;;5067526;28;20362;-44
2023/11/27 08:39:20;;;;;;;4.78;2.33;;;;;;;;;;5067189;28;20343;-50
2023/11/27 08:41:50;;;;;;;5.30;2.28;;;;;;;;;;5066946;28;20060;-44
2023/11/27 08:44:17;;;;;;;3.92;2.10;;;;;;;;;;5067079;28;20024;-43
2023/11/27 08:46:43;;;;;;;6.38;2.45;;;;;;;;;;5067452;28;20257;-44
2023/11/27 08:49:10;;;;;;;4.40;2.53;;;;;;;;;;5066749;28;20362;-48
2023/11/27 08:51:37;;;;;;;4.55;2.58;;;;;;;;;;5067429;28;20037;-44
2023/11/27 08:54:04;;;;;;;4.05;2.72;;;;;;;;;;5066883;28;20025;-42
2023/11/27 08:56:33;;;;;;;5.97;2.70;;;;;;;;;;5067063;28;20088;-43
2023/11/27 08:59:02;;;;;;;6.72;2.90;;;;;;;;;;5066584;28;20040;-46
2023/11/27 09:01:28;;;;;;;3.42;2.50;;;;;;;;;;5066907;28;20021;-47
2023/11/27 09:03:55;;;;;;;4.65;2.55;;;;;;;;;;5066632;28;20017;-44
2023/11/27 09:06:23;;;;;;;7.60;3.35;;;;;;;;;;5067158;28;20088;-42
2023/11/27 09:08:49;;;;;;;5.88;3.05;;;;;;;;;;5066574;28;20028;-41
2023/11/27 09:11:16;;;;;;;5.63;3.40;;;;;;;;;;5066667;28;20021;-45
2023/11/27 09:13:43;;;;;;;6.25;3.38;;;;;;;;;;5066804;28;20316;-51
2023/11/27 09:16:10;;;;;;;4.78;2.70;;;;;;;;;;5066637;28;20029;-42
2023/11/27 09:18:37;;;;;;;5.88;3.15;;;;;;;;;;5066340;28;20066;-42
2023/11/27 09:21:04;;;;;;;5.20;2.90;;;;;;;;;;5066621;28;20041;-44
2023/11/27 09:23:32;;;;;;;7.28;2.80;;;;;;;;;;5066338;28;20024;-43
2023/11/27 09:26:00;;;;;;;5.57;3.03;;;;;;;;;;5066092;28;20029;-42
2023/11/27 09:28:27;;;;;;;4.43;2.63;;;;;;;;;;5066158;28;20216;-43
2023/11/27 09:30:54;;;;;;;5.38;2.67;;;;;;;;;;5066409;28;20048;-42
2023/11/27 09:33:21;;;;;;;3.67;2.75;;;;;;;;;;5066090;28;20212;-46
2023/11/27 09:35:48;;;;;;;4.45;2.75;;;;;;;;;;5066180;28;20029;-41
2023/11/27 09:38:15;;;;;;;6.07;2.90;;;;;;;;;;5065571;28;20025;-45
2023/11/27 09:40:42;;;;;;;4.68;2.53;;;;;;;;;;5066104;28;20304;-43
2023/11/27 09:43:12;;;;;;;6.60;2.72;;;;;;;;;;5065865;28;20041;-42
2023/11/27 09:45:39;;;;;;;10.38;2.97;;;;;;;;;;5065972;28;20100;-43
2023/11/27 09:48:10;;;;;;;17.38;2.80;;;;;;;;;;5065880;28;20032;-43
2023/11/27 09:50:37;;;;;;;5.90;2.80;;;;;;;;;;5065751;28;20036;-47
2023/11/27 09:53:05;;;;;;;4.65;2.92;;;;;;;;;;5065827;28;20211;-42
2023/11/27 09:55:39;;;;;;;7.13;2.70;;;;;;;;;;5065445;28;20095;-41
2023/11/27 09:58:08;;;;;;;4.25;2.75;;;;;;;;;;5065740;28;20025;-45
2023/11/27 10:00:35;;;;;;;22.00;3.10;;;;;;;;;;5065576;28;20061;-41
2023/11/27 10:03:04;;;;;;;4.50;2.75;;;;;;;;;;5065939;28;20044;-44
2023/11/27 10:05:31;;;;;;;5.32;2.70;;;;;;;;;;5065570;28;20235;-43
2023/11/27 10:07:58;;;;;;;6.40;2.55;;;;;;;;;;5065590;28;20381;-50
2023/11/27 10:10:28;;;;;;;7.78;2.75;;;;;;;;;;5065664;28;20037;-44
2023/11/27 10:12:55;;;;;;;6.07;3.10;;;;;;;;;;5065559;28;20020;-48
2023/11/27 10:15:23;;;;;;;3.40;2.28;;;;;;;;;;5065363;28;20308;-44
2023/11/27 10:17:53;;;;;;;7.00;2.75;;;;;;;;;;5065378;28;20033;-43
2023/11/27 10:20:26;;;;;;;6.38;2.88;;;;;;;;;;5065617;28;20039;-48
2023/11/27 10:22:53;;;;;;;4.63;3.00;;;;;;;;;;5065253;28;20028;-42
2023/11/27 10:25:23;;;;;;;4.85;2.70;;;;;;;;;;5076867;28;20078;-45
2023/11/27 10:28:00;;;;;;;5.22;2.72;;;;;;;;;;5085272;28;20039;-41
2023/11/27 10:30:29;;;;;;;6.63;2.75;;;;;;;;;;5085017;28;20054;-48
2023/11/27 10:32:57;;;;;;;6.55;2.45;;;;;;;;;;5085032;28;20024;-42
2023/11/27 10:35:25;;;;;;;4.38;2.58;;;;;;;;;;5085079;28;20028;-43
2023/11/27 10:37:54;;;;;;;6.57;2.65;;;;;;;;;;5084934;28;20016;-43
2023/11/27 10:40:21;;;;;;;4.25;2.50;;;;;;;;;;5084921;28;20338;-46
2023/11/27 10:42:49;;;;;;;10.05;2.83;;;;;;;;;;5084786;28;20020;-44
2023/11/27 10:45:17;;;;;;;7.75;2.38;;;;;;;;;;5084842;28;20103;-45
2023/11/27 10:47:51;;;;;;;4.10;2.40;;;;;;;;;;5084810;28;20313;-45
2023/11/27 10:50:19;;;;;;;4.78;2.65;;;;;;;;;;5083587;28;20048;-45
2023/11/27 10:52:49;;;;;;;5.15;2.58;;;;;;;;;;5084685;28;20028;-50
2023/11/27 10:55:17;;;;;;;7.45;2.75;;;;;;;;;;5084609;28;20309;-44
2023/11/27 10:57:44;;;;;;;5.93;2.63;;;;;;;;;;5084588;28;20024;-50
2023/11/27 11:00:18;;;;;;;25.70;3.00;;;;;;;;;;5073581;28;20049;-50
2023/11/27 11:02:49;;;;;;;4.18;2.40;;;;;;;;;;5057615;28;20038;-42
2023/11/27 11:05:21;;;;;;;6.80;2.70;;;;;;;;;;5045593;28;20217;-43
2023/11/27 11:07:50;;;;;;;4.47;2.50;;;;;;;;;;5052327;28;20028;-42
2023/11/27 11:10:17;;;;;;;6.18;2.67;;;;;;;;;;5057003;28;20290;-43
2023/11/27 11:12:45;;;;;;;6.40;2.58;;;;;;;;;;5063921;28;20028;-43
2023/11/27 11:15:15;;;;;;;5.30;2.42;;;;;;;;;;5063538;28;20102;-49
2023/11/27 11:17:52;;;;;;;9.75;3.60;;;;;;;;;;5064039;28;20025;-44
2023/11/27 11:20:42;;;;;;;10.55;3.83;;;;;;;;;;5064297;28;20045;-44
2023/11/27 11:23:08;;;;;;;16.75;3.75;;;;;;;;;;5025053;28;20029;-45
2023/11/27 11:25:35;;;;;;;18.33;3.95;;;;;;;;;;5038847;28;20071;-41
2023/11/27 11:28:29;;;;;;;12.40;3.42;;;;;;;;;;5043891;28;20253;-43
2023/11/27 11:31:17;;;;;;;8.80;3.38;;;;;;;;;;5056851;28;20063;-47
2023/11/27 11:33:47;;;;;;;6.15;3.20;;;;;;;;;;5059443;28;20029;-50
2023/11/27 11:36:14;;;;;;;10.20;3.65;;;;;;;;;;5063663;28;20028;-54
2023/11/27 11:38:48;;;;;;;8.02;3.50;;;;;;;;;;5062955;28;20184;-52
2023/11/27 11:41:17;;;;;;;8.55;3.50;;;;;;;;;;5063995;28;20028;-54
2023/11/27 11:43:47;;;;;;;9.13;3.70;;;;;;;;;;5063842;28;20028;-52
2023/11/27 11:46:24;;;;;;;8.80;3.90;;;;;;;;;;5062226;28;20044;-52
2023/11/27 11:48:55;;;;;;;8.07;4.25;;;;;;;;;;5061965;28;20037;-51
2023/11/27 11:51:24;;;;;;;7.00;3.50;;;;;;;;;;5062116;28;20039;-50
2023/11/27 11:53:51;;;;;;;7.63;3.45;;;;;;;;;;5062093;28;20027;-51
2023/11/27 11:56:24;;;;;;;6.10;3.17;;;;;;;;;;5062105;28;20043;-53
2023/11/27 11:58:51;;;;;;;5.22;3.25;;;;;;;;;;5062344;28;20292;-54
2023/11/27 12:01:19;;;;;;;4.60;2.70;;;;;;;;;;5082370;28;20351;-56
2023/11/27 12:03:47;;;;;;;5.25;2.50;;;;;;;;;;5083415;28;20025;-55
2023/11/27 12:06:14;;;;;;;5.60;2.50;;;;;;;;;;5083907;28;20020;-56
2023/11/27 12:08:50;;;;;;;4.72;1.98;;;;;;;;;;5083668;28;20024;-54
2023/11/27 12:11:17;;;;;;;4.32;2.60;;;;;;;;;;5083601;28;20027;-53
2023/11/27 12:13:44;;;;;;;4.68;2.30;;;;;;;;;;5083723;28;20039;-55
2023/11/27 12:16:11;;;;;;;4.68;2.25;;;;;;;;;;5083854;28;20080;-52
2023/11/27 12:18:46;;;;;;;4.85;2.10;;;;;;;;;;5083523;28;20016;-59
2023/11/27 12:21:16;;;;;;;4.82;2.63;;;;;;;;;;5083705;28;20075;-54
2023/11/27 12:23:47;;;;;;;4.40;2.17;;;;;;;;;;5083488;28;20024;-57
2023/11/27 12:26:23;;;;;;;4.80;2.15;;;;;;;;;;5083707;28;20101;-57
2023/11/27 12:28:53;;;;;;;3.05;1.92;;;;;;;;;;5083562;28;20331;-63
2023/11/27 12:31:21;;;;;;;3.30;1.92;;;;;;;;;;5083538;28;20052;-62
2023/11/27 12:33:48;;;;;;;4.45;1.83;;;;;;;;;;5083370;28;20199;-63
2023/11/27 12:36:20;;;;;;;3.92;1.83;;;;;;;;;;5083697;28;20023;-62
2023/11/27 12:38:46;;;;;;;;;;;;;;;;;;5083566;28;20083;-62
2023/11/27 12:41:16;;;;;;;24.65;1.90;;;;;;;;;;5083482;28;19909;-62
2023/11/27 12:43:44;;;;;;;5.63;2.20;;;;;;;;;;5083400;28;20017;-64
2023/11/27 12:46:14;;;;;;;3.42;1.77;;;;;;;;;;5083577;28;20036;-63
2023/11/27 12:48:44;;;;;;;4.90;1.80;;;;;;;;;;5065482;28;20087;-62
2023/11/27 12:51:18;;;;;;;3.88;1.75;;;;;;;;;;5083224;28;20032;-63
2023/11/27 12:53:50;;;;;;;1.95;1.70;;;;;;;;;;5083652;28;20024;-64
2023/11/27 12:56:24;;;;;;;4.63;1.90;;;;;;;;;;5083657;28;20024;-61
2023/11/27 12:58:54;;;;;;;3.13;1.90;;;;;;;;;;5083330;28;20038;-61
2023/11/27 13:01:25;;;;;;;4.43;1.88;;;;;;;;;;5065246;28;20049;-61
2023/11/27 13:03:53;;;;;;;3.42;2.40;;;;;;;;;;5082977;28;20317;-62
2023/11/27 13:06:26;;;;;;;4.53;1.75;;;;;;;;;;5083368;28;20062;-61
2023/11/27 13:08:53;;;;;;;3.00;2.03;;;;;;;;;;5083394;28;20082;-62
2023/11/27 13:11:31;;;;;;;5.10;2.15;;;;;;;;;;5083303;28;20033;-61
2023/11/27 13:14:07;;;;;;;3.40;1.90;;;;;;;;;;5084454;28;20364;-63
2023/11/27 13:16:35;;;;;;;3.60;1.83;;;;;;;;;;5086716;28;20032;-64
2023/11/27 13:19:09;;;;;;;3.47;2.20;;;;;;;;;;5086618;28;20300;-63
2023/11/27 13:21:35;;;;;;;3.00;2.30;;;;;;;;;;5068878;28;20390;-63
2023/11/27 13:24:03;;;;;;;4.65;2.70;;;;;;;;;;5086390;28;20012;-64
2023/11/27 13:26:37;;;;;;;5.55;2.40;;;;;;;;;;5086336;28;20146;-63
2023/11/27 13:29:07;;;;;;;5.60;2.80;;;;;;;;;;5068399;28;20058;-64
2023/11/27 13:31:36;;;;;;;5.72;2.60;;;;;;;;;;5086675;28;20033;-63
2023/11/27 13:34:23;;;;;;;6.03;2.33;;;;;;;;;;5086289;28;20039;-53
2023/11/27 13:36:52;;;;;;;6.00;2.50;;;;;;;;;;5086593;28;20110;-53
2023/11/27 13:39:32;;;;;;;4.57;2.60;;;;;;;;;;5086356;28;20228;-52
2023/11/27 13:41:58;;;;;;;6.28;2.67;;;;;;;;;;5086970;28;20036;-52
2023/11/27 13:44:28;;;;;;;5.53;2.50;;;;;;;;;;5086359;28;20020;-51
2023/11/27 13:46:55;;;;;;;4.10;2.50;;;;;;;;;;5086413;28;20088;-52
2023/11/27 13:49:25;;;;;;;5.70;2.63;;;;;;;;;;5086123;28;20028;-48
2023/11/27 13:52:01;;;;;;;5.15;2.42;;;;;;;;;;5068723;28;20048;-53
2023/11/27 13:54:29;;;;;;;3.42;2.50;;;;;;;;;;5085781;28;20020;-54
2023/11/27 13:56:59;;;;;;;5.20;2.70;;;;;;;;;;5086258;28;20055;-53
2023/11/27 13:59:34;;;;;;;3.85;2.40;;;;;;;;;;5085681;28;20096;-53
2023/11/27 14:02:11;;;;;;;5.10;2.90;;;;;;;;;;5086265;28;20092;-54
2023/11/27 14:05:05;;;;;;;3.15;2.60;;;;;;;;;;5085623;28;20037;-52
2023/11/27 14:07:39;;;;;;;9.77;2.80;;;;;;;;;;5085668;28;20036;-53
2023/11/27 14:10:21;;;;;;;6.57;2.85;;;;;;;;;;5085217;28;20347;-51
2023/11/27 14:12:56;;;;;;;3.95;2.75;;;;;;;;;;5085728;28;20043;-52
2023/11/27 14:15:23;;;;;;;4.15;2.70;;;;;;;;;;5085375;28;20039;-52
2023/11/27 14:18:27;;;;;;;6.85;3.05;;;;;;;;;;5085482;28;20024;-52
2023/11/27 14:22:55;;;;;;;4.45;2.50;;;;;;;;;;5083327;28;20037;-51
2023/11/27 14:29:21;;;;;;;4.47;2.65;;;;;;;;;;5085504;28;20048;-54
2023/11/27 14:31:22;;;;;;;3.40;2.42;;;;;;;;;;5077753;28;20040;-52
2023/11/27 14:33:50;;;;;;;4.63;2.83;;;;;;;;;;5085038;28;20303;-53
2023/11/27 14:36:16;;;;;;;5.03;3.33;;;;;;;;;;5085329;28;20088;-54
2023/11/27 14:38:43;;;;;;;8.07;3.15;;;;;;;;;;5084973;28;20043;-57
2023/11/27 14:41:13;;;;;;;5.32;2.70;;;;;;;;;;5067037;28;20024;-53
2023/11/27 14:43:42;;;;;;;7.60;2.80;;;;;;;;;;5084805;28;20074;-53
2023/11/27 14:46:11;;;;;;;5.80;2.70;;;;;;;;;;5085182;28;20016;-53
2023/11/27 14:48:41;;;;;;;5.55;2.85;;;;;;;;;;5084672;28;20350;-54
2023/11/27 14:51:11;;;;;;;5.03;2.60;;;;;;;;;;5084563;28;20091;-53
2023/11/27 14:53:46;;;;;;;5.55;2.70;;;;;;;;;;5085017;28;20016;-51